London, Canada
Current Conditions -  °F | °C
As of 7:00 PM on Monday 20 Oct 2014 (Local Time) from CYXU Reporting Station
Haze Haze  
Wind Chill: 50°   Ceiling: 2000
Heat Index: 50°   Visibility: 4mi
Dew Point: 50°   Wind: 5mph
Humidity: 100%   Direction: 280°W
Pressure: 29.8"   Gusts: NA
Location:  42.99°N, 81.25°W
Report Text: CYXU 202300Z 28004KT 260V320 4SM BR OVC020 10/10 A2980 RMK SC8 SLP095
Loading
Personal Weather Stations






























Interactive Weather Map New forecast layout! Learn more

10-Day Weather Forecast

Advertisements
Track Severe Weather on mobile